Time;durP1;ratioP1;P1;durP2;ratioP2;P2;SDS_P1;SDS_P2;PMS_P1;PMS_P2;Temp;Humidity;BMP_temperature;BMP_pressure;BME280_temperature;BME280_humidity;BME280_pressure;Samples;Min_cycle;Max_cycle;Signal;HPM_P1;HPM_P2
2022/08/07 00:01:05;;;;;;;4.03;3.33;;;12.90;99.90;;;;;;5085992;28;20114;-46
2022/08/07 00:03:31;;;;;;;3.75;3.45;;;12.90;99.90;;;;;;5091386;28;20040;-47
2022/08/07 00:05:57;;;;;;;5.22;4.25;;;12.90;99.90;;;;;;5089351;28;20083;-45
2022/08/07 00:08:23;;;;;;;5.40;4.60;;;12.80;99.90;;;;;;5090941;28;20127;-45
2022/08/07 00:10:49;;;;;;;6.60;4.25;;;12.90;99.90;;;;;;5089569;28;20035;-47
2022/08/07 00:13:16;;;;;;;4.35;3.95;;;12.80;99.90;;;;;;5091227;28;20039;-45
2022/08/07 00:15:42;;;;;;;5.63;4.00;;;12.80;99.90;;;;;;5084209;28;20036;-46
2022/08/07 00:18:08;;;;;;;4.95;4.45;;;12.80;99.90;;;;;;5052868;28;20569;-47
2022/08/07 00:20:35;;;;;;;3.83;3.53;;;12.70;99.90;;;;;;5054133;28;20103;-46
2022/08/07 00:23:00;;;;;;;5.22;3.38;;;12.70;99.90;;;;;;5069952;28;20044;-46
2022/08/07 00:25:26;;;;;;;5.53;4.05;;;12.60;99.90;;;;;;5072013;28;20032;-45
2022/08/07 00:27:52;;;;;;;4.63;4.03;;;12.50;99.90;;;;;;5070755;28;20394;-46
2022/08/07 00:30:18;;;;;;;4.32;3.92;;;12.50;99.90;;;;;;5073393;28;20063;-45
2022/08/07 00:32:47;;;;;;;4.95;3.53;;;12.50;99.90;;;;;;5090651;28;20055;-47
2022/08/07 00:35:12;;;;;;;4.13;3.67;;;12.40;99.90;;;;;;5089091;28;20051;-45
2022/08/07 00:37:38;;;;;;;6.60;3.63;;;12.40;99.90;;;;;;5090647;28;20035;-47
2022/08/07 00:40:04;;;;;;;5.68;4.40;;;12.30;99.90;;;;;;5090888;28;20038;-45
2022/08/07 00:42:32;;;;;;;6.68;5.22;;;12.30;99.90;;;;;;5070738;28;20040;-46
2022/08/07 00:44:57;;;;;;;5.75;5.13;;;12.30;99.90;;;;;;5070317;28;20044;-46
2022/08/07 00:47:23;;;;;;;12.02;5.32;;;12.30;99.90;;;;;;5071468;28;20516;-46
2022/08/07 00:49:49;;;;;;;6.35;4.65;;;12.40;99.90;;;;;;5070661;28;20650;-46
2022/08/07 00:52:14;;;;;;;5.07;4.57;;;12.40;99.90;;;;;;5085896;28;20040;-47
2022/08/07 00:54:40;;;;;;;7.43;5.80;;;12.30;99.90;;;;;;5090460;28;20282;-48
2022/08/07 00:57:07;;;;;;;4.03;3.60;;;12.30;99.90;;;;;;5076089;28;20068;-46
2022/08/07 00:59:33;;;;;;;5.00;4.40;;;12.20;99.90;;;;;;5070290;28;20044;-45
2022/08/07 01:02:01;;;;;;;3.55;2.20;;;12.20;99.90;;;;;;5073895;28;20123;-45
2022/08/07 01:04:27;;;;;;;4.72;3.30;;;12.10;99.90;;;;;;5069688;28;20453;-45
2022/08/07 01:06:54;;;;;;;3.60;2.30;;;12.10;99.90;;;;;;5071121;28;20043;-46
2022/08/07 01:09:20;;;;;;;5.43;4.20;;;12.00;99.90;;;;;;5070246;28;20067;-45
2022/08/07 01:11:46;;;;;;;7.53;5.10;;;11.90;99.90;;;;;;5073457;28;20083;-45
2022/08/07 01:14:11;;;;;;;6.03;5.43;;;11.90;99.90;;;;;;5090003;28;20365;-47
2022/08/07 01:16:37;;;;;;;7.68;5.60;;;12.00;99.90;;;;;;5084215;28;20044;-48
2022/08/07 01:19:04;;;;;;;8.27;6.00;;;12.00;99.90;;;;;;5073142;28;20036;-47
2022/08/07 01:21:30;;;;;;;6.50;5.50;;;12.00;99.90;;;;;;5088513;28;20048;-46
2022/08/07 01:23:56;;;;;;;5.70;4.82;;;12.10;99.90;;;;;;5090234;28;20032;-45
2022/08/07 01:26:22;;;;;;;7.97;4.32;;;12.10;99.90;;;;;;5088839;28;20431;-47
2022/08/07 01:28:49;;;;;;;5.10;4.70;;;12.10;99.90;;;;;;5091729;28;20044;-46
2022/08/07 01:31:17;;;;;;;4.63;4.15;;;12.00;99.90;;;;;;5094256;28;20046;-45
2022/08/07 01:33:45;;;;;;;5.10;4.07;;;12.00;99.90;;;;;;5092054;28;20101;-45
2022/08/07 01:36:11;;;;;;;4.82;4.43;;;12.00;99.90;;;;;;5094081;28;20051;-45
2022/08/07 01:38:38;;;;;;;6.80;4.90;;;11.90;99.90;;;;;;5076188;28;20112;-45
2022/08/07 01:41:06;;;;;;;5.35;4.50;;;11.90;99.90;;;;;;5074985;28;20040;-46
2022/08/07 01:43:32;;;;;;;5.10;4.63;;;11.80;99.90;;;;;;5074924;28;20421;-47
2022/08/07 01:45:58;;;;;;;;;;;11.80;99.90;;;;;;5074029;28;20099;-47
2022/08/07 01:48:24;;;;;;;4.40;4.00;;;11.80;99.90;;;;;;5085773;28;19967;-47
2022/08/07 01:50:58;;;;;;;6.30;4.80;;;11.70;99.90;;;;;;5094155;28;20036;-45
2022/08/07 01:53:27;;;;;;;6.32;5.18;;;11.80;99.90;;;;;;5082495;28;20169;-47
2022/08/07 01:55:57;;;;;;;4.85;4.30;;;11.80;99.90;;;;;;5073948;28;20381;-46
2022/08/07 01:58:28;;;;;;;5.03;4.53;;;11.70;99.90;;;;;;5080655;28;20047;-46
2022/08/07 02:00:59;;;;;;;6.88;4.93;;;11.70;99.90;;;;;;5078125;28;20180;-45
2022/08/07 02:03:27;;;;;;;6.15;5.07;;;11.70;99.90;;;;;;5074341;28;20107;-45
2022/08/07 02:05:57;;;;;;;7.07;4.50;;;11.70;99.90;;;;;;5073396;28;20085;-44
2022/08/07 02:08:25;;;;;;;8.15;5.68;;;11.70;99.90;;;;;;5081732;28;20044;-47
2022/08/07 02:10:52;;;;;;;6.50;5.40;;;11.70;99.90;;;;;;5093727;28;20371;-46
2022/08/07 02:13:22;;;;;;;7.13;4.43;;;11.70;99.90;;;;;;5091181;28;20058;-46
2022/08/07 02:15:49;;;;;;;5.97;4.63;;;11.70;99.90;;;;;;5093672;28;20051;-47
2022/08/07 02:18:16;;;;;;;5.07;4.63;;;11.80;99.90;;;;;;5091633;28;20044;-46
2022/08/07 02:20:44;;;;;;;9.02;4.78;;;11.80;99.90;;;;;;5085472;28;20474;-46
2022/08/07 02:23:12;;;;;;;5.05;4.55;;;11.70;99.90;;;;;;5072559;28;20133;-45
2022/08/07 02:25:39;;;;;;;5.65;4.40;;;11.60;99.90;;;;;;5072644;28;20032;-45
2022/08/07 02:28:06;;;;;;;4.72;4.13;;;11.60;99.90;;;;;;5074607;28;20047;-47
2022/08/07 02:30:34;;;;;;;5.32;4.80;;;11.60;99.90;;;;;;5093356;28;20043;-45
2022/08/07 02:33:01;;;;;;;4.95;4.43;;;11.50;99.90;;;;;;5091869;28;20484;-48
2022/08/07 02:35:28;;;;;;;4.45;4.05;;;11.50;99.90;;;;;;5092870;28;20039;-45
2022/08/07 02:37:56;;;;;;;5.43;4.68;;;11.40;99.90;;;;;;5093039;28;20436;-47
2022/08/07 02:40:22;;;;;;;7.90;4.40;;;11.40;99.90;;;;;;5073428;28;20371;-45
2022/08/07 02:42:48;;;;;;;;;;;11.30;99.90;;;;;;5073628;28;20344;-45
2022/08/07 02:45:17;;;;;;;4.55;3.38;;;11.30;99.90;;;;;;5074066;28;19942;-45
2022/08/07 02:47:43;;;;;;;7.35;4.63;;;11.20;99.90;;;;;;5073095;28;20557;-47
2022/08/07 02:50:09;;;;;;;5.47;4.13;;;11.20;99.90;;;;;;5089006;28;20324;-47
2022/08/07 02:52:40;;;;;;;8.18;5.90;;;11.20;99.90;;;;;;5091089;28;20067;-45
2022/08/07 02:55:18;;;;;;;4.80;4.20;;;11.20;99.90;;;;;;5090981;28;20036;-47
2022/08/07 02:57:45;;;;;;;5.13;4.55;;;11.20;99.90;;;;;;5080576;28;20086;-45
2022/08/07 03:00:12;;;;;;;5.65;5.15;;;11.10;99.90;;;;;;5087235;28;20172;-48
2022/08/07 03:02:41;;;;;;;6.72;4.70;;;11.10;99.90;;;;;;5092259;28;20058;-47
2022/08/07 03:05:08;;;;;;;5.28;4.78;;;11.10;99.90;;;;;;5090199;28;20536;-46
2022/08/07 03:07:35;;;;;;;5.28;4.78;;;11.10;99.90;;;;;;5091885;28;20036;-47
2022/08/07 03:10:01;;;;;;;2.63;2.03;;;11.10;99.90;;;;;;5080986;28;20049;-47
2022/08/07 03:12:27;;;;;;;2.42;2.10;;;11.10;99.90;;;;;;5072268;28;20048;-47
2022/08/07 03:14:55;;;;;;;3.65;3.35;;;11.10;99.90;;;;;;5072957;28;20455;-48
2022/08/07 03:17:21;;;;;;;3.97;3.35;;;11.00;99.90;;;;;;5085040;28;20370;-45
2022/08/07 03:19:47;;;;;;;4.25;3.95;;;11.00;99.90;;;;;;5084124;28;20097;-47
2022/08/07 03:22:13;;;;;;;4.53;3.78;;;11.00;99.90;;;;;;5071702;28;20379;-47
2022/08/07 03:24:38;;;;;;;4.22;3.83;;;11.10;99.90;;;;;;5081568;28;20095;-45
2022/08/07 03:27:06;;;;;;;3.77;3.30;;;11.10;99.90;;;;;;5071992;28;20029;-45
2022/08/07 03:29:37;;;;;;;4.10;3.78;;;11.10;99.90;;;;;;5075647;28;20507;-47
2022/08/07 03:32:06;;;;;;;3.22;2.95;;;11.00;99.90;;;;;;5092023;28;20412;-45
2022/08/07 03:34:33;;;;;;;4.78;4.07;;;11.00;99.90;;;;;;5071333;28;20072;-48
2022/08/07 03:37:01;;;;;;;4.97;4.47;;;11.00;99.90;;;;;;5092067;28;20048;-45
2022/08/07 03:39:30;;;;;;;4.00;3.50;;;10.90;99.90;;;;;;5071766;28;20472;-45
2022/08/07 03:41:56;;;;;;;5.00;3.92;;;10.90;99.90;;;;;;5071652;28;20063;-47
2022/08/07 03:44:22;;;;;;;7.35;5.18;;;10.80;99.90;;;;;;5071481;28;20119;-46
2022/08/07 03:46:48;;;;;;;5.38;4.88;;;10.80;99.90;;;;;;5071866;28;20040;-47
2022/08/07 03:49:14;;;;;;;6.03;5.10;;;10.80;99.90;;;;;;5071137;28;20040;-47
2022/08/07 03:51:41;;;;;;;6.00;5.33;;;10.80;99.90;;;;;;5088417;28;20040;-47
2022/08/07 03:54:07;;;;;;;5.03;4.55;;;10.80;99.90;;;;;;5091509;28;20354;-45
2022/08/07 03:56:35;;;;;;;5.50;3.88;;;10.80;99.90;;;;;;5089577;28;20040;-46
2022/08/07 03:59:04;;;;;;;4.70;3.40;;;10.80;99.90;;;;;;5091545;28;20382;-45
2022/08/07 04:01:31;;;;;;;6.35;3.90;;;10.80;99.90;;;;;;5076152;28;20036;-45
2022/08/07 04:03:57;;;;;;;3.70;3.17;;;10.80;99.90;;;;;;5070562;28;20055;-47
2022/08/07 04:06:23;;;;;;;3.35;3.03;;;10.70;99.90;;;;;;5072088;28;20037;-45
2022/08/07 04:08:50;;;;;;;3.28;2.97;;;10.60;99.90;;;;;;5053290;28;20624;-45
2022/08/07 04:11:16;;;;;;;4.88;3.30;;;10.60;99.90;;;;;;5082220;28;20114;-45
2022/08/07 04:13:42;;;;;;;5.25;4.32;;;10.60;99.90;;;;;;5090865;28;20111;-49
2022/08/07 04:16:07;;;;;;;4.15;3.72;;;10.70;99.90;;;;;;5089170;28;20498;-44
2022/08/07 04:18:33;;;;;;;6.60;2.90;;;10.60;99.90;;;;;;5090709;28;20047;-45
2022/08/07 04:20:59;;;;;;;5.63;3.55;;;10.70;99.90;;;;;;5084263;28;20121;-47
2022/08/07 04:23:26;;;;;;;4.72;2.85;;;10.60;99.90;;;;;;5070855;28;20054;-46
2022/08/07 04:25:52;;;;;;;9.02;3.55;;;10.60;99.90;;;;;;5071903;28;20047;-45
2022/08/07 04:28:18;;;;;;;;;;;10.60;99.90;;;;;;5071336;28;20080;-47
2022/08/07 04:30:47;;;;;;;5.07;3.83;;;10.60;99.90;;;;;;5074321;28;19927;-45
2022/08/07 04:33:14;;;;;;;5.55;3.70;;;10.60;99.90;;;;;;5091223;28;20419;-45
2022/08/07 04:35:40;;;;;;;4.55;3.83;;;10.70;99.90;;;;;;5089231;28;20493;-46
2022/08/07 04:38:09;;;;;;;6.72;4.68;;;10.70;99.90;;;;;;5090888;28;20066;-46
2022/08/07 04:40:39;;;;;;;4.18;3.33;;;10.80;99.90;;;;;;5089871;28;20043;-46
2022/08/07 04:43:04;;;;;;;3.22;2.88;;;10.70;99.90;;;;;;5089034;28;20085;-44
2022/08/07 04:45:57;;;;;;;4.50;2.88;;;10.70;99.90;;;;;;5090071;28;20036;-46
2022/08/07 04:48:43;;;;;;;3.45;2.97;;;10.70;99.90;;;;;;5090867;28;20071;-45
2022/08/07 04:51:14;;;;;;;6.90;4.25;;;10.70;99.90;;;;;;5087107;28;20090;-46
2022/08/07 04:53:58;;;;;;;5.15;3.58;;;10.70;99.90;;;;;;5069942;28;20036;-45
2022/08/07 04:56:46;;;;;;;3.60;3.30;;;10.70;99.90;;;;;;5071339;28;20141;-45
2022/08/07 04:59:15;;;;;;;3.92;3.25;;;10.70;99.90;;;;;;5070666;28;20090;-45
2022/08/07 05:01:47;;;;;;;7.20;4.68;;;10.70;99.90;;;;;;5070817;28;20040;-45
2022/08/07 05:04:37;;;;;;;9.63;6.63;;;10.70;99.90;;;;;;5068763;28;20052;-48
2022/08/07 05:07:15;;;;;;;8.77;7.13;;;10.80;99.90;;;;;;5070921;28;20456;-46
2022/08/07 05:09:46;;;;;;;10.07;7.07;;;10.80;99.90;;;;;;5070467;28;20052;-45
2022/08/07 05:12:16;;;;;;;13.52;7.35;;;10.90;99.90;;;;;;5077300;28;20079;-46
2022/08/07 05:14:47;;;;;;;8.60;7.00;;;11.00;99.90;;;;;;5089334;28;20050;-45
2022/08/07 05:17:17;;;;;;;7.78;6.97;;;11.00;99.90;;;;;;5083689;28;20041;-46
2022/08/07 05:19:47;;;;;;;10.50;7.90;;;11.10;99.90;;;;;;5070135;28;20036;-45
2022/08/07 05:22:14;;;;;;;16.33;8.48;;;11.20;99.90;;;;;;5070146;28;20048;-46
2022/08/07 05:24:41;;;;;;;13.40;8.98;;;11.30;99.90;;;;;;5069791;28;20044;-45
2022/08/07 05:27:08;;;;;;;;;;;11.40;99.90;;;;;;5088159;28;20036;-45
2022/08/07 05:29:37;;;;;;;11.57;9.05;;;11.50;99.90;;;;;;5070435;28;19930;-46
2022/08/07 05:32:06;;;;;;;13.65;9.48;;;11.60;99.90;;;;;;5071153;28;20116;-47
2022/08/07 05:34:34;;;;;;;13.73;11.70;;;11.70;99.90;;;;;;5070032;28;20070;-46
2022/08/07 05:37:00;;;;;;;13.85;10.25;;;11.90;99.90;;;;;;5070872;28;20041;-48
2022/08/07 05:39:26;;;;;;;17.95;11.35;;;12.00;99.90;;;;;;5070160;28;20040;-45
2022/08/07 05:41:52;;;;;;;18.52;12.43;;;12.10;99.90;;;;;;5070647;28;20042;-45
2022/08/07 05:44:19;;;;;;;13.68;11.48;;;12.20;99.90;;;;;;5069543;28;20040;-48
2022/08/07 05:46:48;;;;;;;17.33;12.43;;;12.30;99.90;;;;;;5079834;28;20035;-47
2022/08/07 05:49:14;;;;;;;18.48;13.43;;;12.30;99.90;;;;;;5090146;28;20043;-46
2022/08/07 05:51:44;;;;;;;19.90;14.05;;;12.50;99.90;;;;;;5087914;28;20040;-45
2022/08/07 05:54:10;;;;;;;20.45;13.65;;;12.60;99.90;;;;;;5089372;28;20386;-45
2022/08/07 05:56:37;;;;;;;18.45;14.15;;;12.70;99.90;;;;;;5088035;28;20036;-47
2022/08/07 05:59:04;;;;;;;20.30;15.05;;;12.90;99.90;;;;;;5089930;28;20435;-48
2022/08/07 06:01:32;;;;;;;20.35;13.38;;;13.00;99.90;;;;;;5087889;28;20032;-45
2022/08/07 06:03:59;;;;;;;25.63;15.05;;;13.10;99.90;;;;;;5089720;28;20051;-47
2022/08/07 06:06:25;;;;;;;19.08;14.63;;;13.30;99.90;;;;;;5086696;28;20154;-45
2022/08/07 06:08:52;;;;;;;;;;;13.40;99.90;;;;;;5069881;28;20044;-46
2022/08/07 06:11:18;;;;;;;21.03;14.47;;;13.60;99.90;;;;;;5070263;28;19916;-45
2022/08/07 06:13:43;;;;;;;19.70;14.73;;;13.70;99.90;;;;;;5070497;28;20032;-45
2022/08/07 06:16:09;;;;;;;21.40;15.80;;;13.80;99.90;;;;;;5073376;28;20037;-46
2022/08/07 06:18:35;;;;;;;19.98;15.57;;;14.00;99.90;;;;;;5074369;28;20283;-47
2022/08/07 06:21:03;;;;;;;21.95;15.48;;;14.10;99.90;;;;;;5073366;28;20074;-46
2022/08/07 06:23:29;;;;;;;20.42;14.60;;;14.20;99.90;;;;;;5073905;28;20036;-47
2022/08/07 06:25:56;;;;;;;23.08;16.17;;;14.40;99.90;;;;;;5055076;28;20341;-48
2022/08/07 06:28:22;;;;;;;21.88;13.75;;;14.50;99.90;;;;;;5086119;28;20044;-45
2022/08/07 06:30:48;;;;;;;25.45;12.15;;;14.60;99.90;;;;;;5093315;28;20543;-48
2022/08/07 06:33:13;;;;;;;17.48;13.98;;;14.80;99.90;;;;;;5091110;28;20067;-47
2022/08/07 06:35:39;;;;;;;15.63;12.65;;;14.90;99.90;;;;;;5093224;28;20071;-47
2022/08/07 06:38:06;;;;;;;21.83;16.70;;;15.10;99.90;;;;;;5082386;28;20036;-48
2022/08/07 06:40:48;;;;;;;21.77;14.55;;;15.20;99.90;;;;;;5063691;28;20044;-46
2022/08/07 06:43:16;;;;;;;21.42;16.70;;;15.30;99.90;;;;;;5083417;28;20040;-48
2022/08/07 06:45:41;;;;;;;18.98;14.48;;;15.40;99.90;;;;;;5085171;28;20429;-45
2022/08/07 06:48:07;;;;;;;19.42;14.80;;;15.60;99.90;;;;;;5072567;28;20082;-46
2022/08/07 06:50:35;;;;;;;19.63;15.23;;;15.70;99.90;;;;;;5080532;28;20047;-45
2022/08/07 06:53:02;;;;;;;20.50;15.15;;;15.80;99.90;;;;;;5083899;28;20094;-46
2022/08/07 06:55:30;;;;;;;16.98;14.57;;;15.90;99.90;;;;;;5072298;28;20501;-47
2022/08/07 06:58:05;;;;;;;20.00;14.63;;;16.00;99.90;;;;;;5077428;28;20077;-47
2022/08/07 07:00:36;;;;;;;17.80;13.50;;;16.10;99.90;;;;;;5083456;28;20414;-46
2022/08/07 07:03:02;;;;;;;17.88;14.32;;;16.20;99.90;;;;;;5072339;28;20089;-47
2022/08/07 07:05:28;;;;;;;13.73;12.25;;;16.30;99.90;;;;;;5085707;28;20070;-46
2022/08/07 07:07:54;;;;;;;16.35;12.13;;;16.50;99.90;;;;;;5092434;28;20512;-47
2022/08/07 07:10:34;;;;;;;15.95;11.57;;;16.50;99.90;;;;;;5092615;28;20081;-48
2022/08/07 07:13:15;;;;;;;16.20;12.27;;;16.60;99.90;;;;;;5092220;28;20123;-48
2022/08/07 07:15:59;;;;;;;15.68;11.27;;;16.70;99.90;;;;;;5092018;28;20114;-48
2022/08/07 07:18:47;;;;;;;16.00;13.02;;;16.80;99.90;;;;;;5072587;28;20383;-45
2022/08/07 07:21:20;;;;;;;14.82;11.45;;;17.00;99.90;;;;;;5072081;28;20189;-49
2022/08/07 07:23:47;;;;;;;15.35;11.50;;;17.10;99.90;;;;;;5087264;28;20039;-48
2022/08/07 07:26:14;;;;;;;13.50;10.00;;;17.20;99.90;;;;;;5073102;28;20070;-47
2022/08/07 07:28:47;;;;;;;15.32;10.10;;;17.20;99.90;;;;;;5082769;28;20041;-47
2022/08/07 07:31:33;;;;;;;12.30;10.55;;;17.40;99.90;;;;;;5071981;28;20116;-46
2022/08/07 07:34:04;;;;;;;13.27;8.57;;;17.50;99.90;;;;;;5081974;28;20047;-47
2022/08/07 07:36:32;;;;;;;138.25;18.98;;;17.60;99.90;;;;;;5074353;28;20153;-44
2022/08/07 07:39:01;;;;;;;15.18;8.85;;;17.70;99.90;;;;;;5081135;28;20118;-45
2022/08/07 07:41:28;;;;;;;12.50;7.32;;;17.80;99.90;;;;;;5091944;28;20036;-47
2022/08/07 07:43:56;;;;;;;8.75;7.88;;;18.00;99.90;;;;;;5082362;28;20040;-45
2022/08/07 07:46:23;;;;;;;14.77;7.88;;;18.10;99.90;;;;;;5071102;28;20044;-50
2022/08/07 07:48:51;;;;;;;14.00;8.05;;;18.20;99.80;;;;;;5078345;28;20039;-48
2022/08/07 07:51:19;;;;;;;14.32;7.22;;;18.30;99.90;;;;;;5092020;28;20040;-47
2022/08/07 07:53:46;;;;;;;14.57;8.75;;;18.40;99.40;;;;;;5089608;28;20043;-48
2022/08/07 07:56:13;;;;;;;13.50;7.85;;;18.40;99.00;;;;;;5091235;28;20493;-53
2022/08/07 07:58:40;;;;;;;12.77;7.78;;;18.60;99.10;;;;;;5086427;28;20494;-49
2022/08/07 08:01:10;;;;;;;17.38;7.72;;;18.70;98.70;;;;;;5071237;28;20489;-48
2022/08/07 08:03:39;;;;;;;53.38;9.75;;;18.80;98.80;;;;;;5073747;28;20401;-48
2022/08/07 08:06:06;;;;;;;11.07;6.93;;;18.90;98.50;;;;;;5091424;28;20119;-48
2022/08/07 08:08:34;;;;;;;11.00;6.82;;;19.00;98.20;;;;;;5089335;28;20047;-48
2022/08/07 08:11:00;;;;;;;6.43;5.10;;;19.10;98.10;;;;;;5071175;28;20070;-48
2022/08/07 08:13:27;;;;;;;16.38;6.22;;;19.20;97.20;;;;;;5070736;28;20039;-48
2022/08/07 08:15:55;;;;;;;6.22;5.22;;;19.30;96.70;;;;;;5072550;28;20504;-49
2022/08/07 08:18:23;;;;;;;16.00;6.80;;;19.30;96.30;;;;;;5090985;28;20071;-50
2022/08/07 08:20:49;;;;;;;7.88;6.15;;;19.40;96.20;;;;;;5071319;28;20409;-51
2022/08/07 08:27:03;;;;;;;6.15;5.53;;;19.50;95.60;;;;;;5070585;28;20036;-49
2022/08/07 08:28:52;;;;;;;6.88;5.82;;;19.70;95.90;;;;;;5072591;28;20126;-49
2022/08/07 08:31:24;;;;;;;8.23;5.22;;;19.70;95.60;;;;;;5091175;28;20043;-48
2022/08/07 08:33:53;;;;;;;6.63;5.25;;;19.80;94.60;;;;;;5088307;28;20075;-48
2022/08/07 08:36:20;;;;;;;7.25;4.70;;;19.90;95.00;;;;;;5070487;28;20047;-50
2022/08/07 08:38:47;;;;;;;4.45;4.00;;;19.90;94.70;;;;;;5053073;28;20040;-49
2022/08/07 08:41:22;;;;;;;4.90;4.47;;;19.90;94.60;;;;;;5090696;28;20040;-48
2022/08/07 08:44:16;;;;;;;9.45;4.38;;;20.00;94.10;;;;;;5090347;28;20433;-49
2022/08/07 08:46:59;;;;;;;4.88;4.28;;;20.10;93.90;;;;;;5069905;28;20072;-49
2022/08/07 08:49:28;;;;;;;6.47;4.90;;;20.10;93.30;;;;;;5075063;28;20040;-49
2022/08/07 08:52:00;;;;;;;8.27;4.78;;;20.10;93.90;;;;;;5090738;28;20047;-48
2022/08/07 08:55:04;;;;;;;8.50;4.88;;;20.30;93.80;;;;;;5078425;28;20047;-54
2022/08/07 08:58:11;;;;;;;8.45;5.40;;;20.30;93.80;;;;;;4967982;28;20538;-48
2022/08/07 09:00:43;;;;;;;7.35;5.22;;;20.50;93.00;;;;;;4966769;28;20042;-51
2022/08/07 09:03:29;;;;;;;5.57;4.90;;;20.50;93.10;;;;;;4966321;28;20451;-49
2022/08/07 09:06:08;;;;;;;5.82;4.13;;;20.60;93.30;;;;;;4966409;28;20041;-49
2022/08/07 09:08:56;;;;;;;9.38;4.07;;;20.70;93.70;;;;;;4968636;28;20474;-49
2022/08/07 09:11:35;;;;;;;5.90;4.43;;;20.80;93.30;;;;;;4968335;28;20070;-50
2022/08/07 09:14:30;;;;;;;6.53;4.18;;;20.90;92.60;;;;;;4968578;28;20054;-51
2022/08/07 09:17:21;;;;;;;5.72;3.85;;;21.00;92.50;;;;;;4968572;28;20038;-49
2022/08/07 09:20:04;;;;;;;6.60;3.85;;;21.00;92.20;;;;;;4952644;28;20075;-50
2022/08/07 09:22:46;;;;;;;5.38;4.88;;;21.10;92.30;;;;;;4968450;28;20114;-52
2022/08/07 09:25:46;;;;;;;4.10;3.78;;;21.20;91.80;;;;;;4968197;28;20074;-51
2022/08/07 09:28:23;;;;;;;7.60;4.25;;;21.30;91.60;;;;;;4968819;28;20101;-49
2022/08/07 09:31:12;;;;;;;7.47;4.70;;;21.30;91.90;;;;;;4968431;28;20043;-50
2022/08/07 09:34:09;;;;;;;5.97;4.22;;;21.40;91.80;;;;;;5041606;28;20044;-51
2022/08/07 09:36:58;;;;;;;9.65;4.47;;;21.50;92.10;;;;;;5071113;28;20032;-51
2022/08/07 09:39:38;;;;;;;5.85;5.28;;;21.60;92.00;;;;;;5069479;28;20045;-50
2022/08/07 09:42:26;;;;;;;4.60;4.20;;;21.70;91.30;;;;;;5069732;28;20061;-51
2022/08/07 09:45:13;;;;;;;5.38;4.80;;;21.80;91.10;;;;;;5070558;28;20436;-53
2022/08/07 09:48:06;;;;;;;5.78;3.92;;;21.80;92.00;;;;;;5069500;28;20040;-53
2022/08/07 09:51:10;;;;;;;3.65;3.22;;;21.90;90.60;;;;;;5079196;28;20280;-48
2022/08/07 09:53:37;;;;;;;4.88;3.95;;;21.90;90.50;;;;;;5015881;28;20056;-47
2022/08/07 09:56:22;;;;;;;4.45;3.47;;;22.00;90.90;;;;;;5078368;28;20052;-48
2022/08/07 09:59:08;;;;;;;7.22;4.55;;;22.20;90.20;;;;;;5073725;28;20052;-50
2022/08/07 10:01:52;;;;;;;8.82;3.53;;;22.30;90.40;;;;;;5087322;28;20044;-51
2022/08/07 10:04:50;;;;;;;5.80;3.28;;;22.20;90.10;;;;;;5092918;28;20058;-47
2022/08/07 10:07:53;;;;;;;4.03;3.38;;;22.30;88.70;;;;;;5074519;28;20396;-48
2022/08/07 10:10:27;;;;;;;7.75;3.05;;;22.30;87.90;;;;;;5074168;28;20048;-48
2022/08/07 10:13:13;;;;;;;4.55;2.70;;;22.40;88.10;;;;;;5073308;28;20072;-47
2022/08/07 10:16:12;;;;;;;8.18;3.75;;;22.50;87.20;;;;;;5076875;28;20513;-51
2022/08/07 10:19:12;;;;;;;2.70;2.50;;;22.50;87.00;;;;;;5093366;28;20127;-49
2022/08/07 10:21:59;;;;;;;2.83;2.47;;;22.40;85.30;;;;;;5081063;28;20450;-52
2022/08/07 10:24:59;;;;;;;2.03;1.92;;;22.50;86.80;;;;;;5072655;28;20028;-47
2022/08/07 10:27:52;;;;;;;3.38;1.80;;;22.40;87.10;;;;;;5089804;28;20116;-48
2022/08/07 10:30:46;;;;;;;5.00;2.67;;;22.40;86.20;;;;;;5093963;28;20134;-47
2022/08/07 10:33:27;;;;;;;6.45;2.40;;;22.40;85.00;;;;;;5072797;28;20045;-50
2022/08/07 10:36:18;;;;;;;4.65;2.00;;;22.50;85.10;;;;;;5075974;28;20401;-48
2022/08/07 10:39:01;;;;;;;2.92;1.48;;;22.50;83.30;;;;;;5072838;28;20052;-48
2022/08/07 10:41:37;;;;;;;2.20;1.10;;;22.70;84.30;;;;;;5078959;28;20532;-46
2022/08/07 10:44:23;;;;;;;3.53;1.58;;;22.80;85.00;;;;;;5075826;28;20036;-47
2022/08/07 10:47:08;;;;;;;2.05;1.55;;;23.00;83.60;;;;;;5090206;28;20068;-51
2022/08/07 10:49:47;;;;;;;6.10;1.23;;;23.10;82.80;;;;;;5093767;28;20115;-49
2022/08/07 10:52:41;;;;;;;5.22;1.77;;;23.20;84.90;;;;;;5092159;28;20031;-50
2022/08/07 10:55:49;;;;;;;4.80;1.20;;;23.30;81.70;;;;;;5092653;28;20040;-49
2022/08/07 10:58:55;;;;;;;4.30;1.63;;;23.40;81.50;;;;;;4990573;28;20042;-50
2022/08/07 11:01:24;;;;;;;1.50;1.25;;;23.50;82.20;;;;;;5074787;28;20485;-50
2022/08/07 11:04:09;;;;;;;3.05;1.30;;;23.60;80.90;;;;;;5091859;28;20119;-51
2022/08/07 11:06:39;;;;;;;4.45;1.63;;;23.70;79.80;;;;;;5086277;28;20397;-49
2022/08/07 11:09:37;;;;;;;4.93;1.60;;;23.80;79.90;;;;;;5072221;28;20040;-49
2022/08/07 11:12:27;;;;;;;4.18;1.85;;;23.90;79.70;;;;;;5064942;28;20047;-51
2022/08/07 11:15:01;;;;;;;1.95;1.33;;;24.00;78.10;;;;;;5092484;28;20470;-49
2022/08/07 11:17:40;;;;;;;3.50;1.17;;;24.10;79.20;;;;;;5090588;28;20576;-49
2022/08/07 11:20:21;;;;;;;2.53;1.10;;;24.10;77.90;;;;;;5091910;28;20040;-48
2022/08/07 11:23:13;;;;;;;2.10;1.38;;;24.10;75.70;;;;;;5078420;28;20033;-52
2022/08/07 11:25:49;;;;;;;1.17;1.08;;;24.10;74.80;;;;;;5053993;28;20036;-48
2022/08/07 11:28:22;;;;;;;1.40;1.30;;;24.10;77.00;;;;;;5089080;28;20438;-52
2022/08/07 11:30:56;;;;;;;1.40;1.23;;;24.20;77.60;;;;;;5091532;28;20075;-49
2022/08/07 11:33:48;;;;;;;2.75;1.00;;;24.20;76.60;;;;;;5073570;28;20049;-48
2022/08/07 11:36:41;;;;;;;1.83;1.05;;;24.20;75.30;;;;;;5071523;28;20043;-48
2022/08/07 11:39:16;;;;;;;1.38;1.02;;;24.20;74.30;;;;;;5053439;28;20041;-49
2022/08/07 11:41:56;;;;;;;3.17;1.05;;;24.10;73.20;;;;;;5072509;28;20032;-49
2022/08/07 11:44:25;;;;;;;3.53;1.10;;;24.10;73.30;;;;;;5071357;28;20139;-51
2022/08/07 11:46:57;;;;;;;1.88;0.80;;;24.10;73.20;;;;;;5073386;28;20501;-50
2022/08/07 11:49:43;;;;;;;2.88;1.17;;;24.10;71.50;;;;;;5091707;28;20051;-51
2022/08/07 11:52:35;;;;;;;2.10;0.98;;;24.00;70.40;;;;;;5089816;28;20039;-50
2022/08/07 11:55:07;;;;;;;3.10;0.95;;;24.00;70.80;;;;;;5091155;28;20165;-52
2022/08/07 11:57:51;;;;;;;1.75;1.25;;;24.00;72.40;;;;;;5083163;28;20117;-49
2022/08/07 12:00:28;;;;;;;2.80;1.00;;;24.00;72.10;;;;;;5071485;28;20076;-49
2022/08/07 12:03:22;;;;;;;1.58;0.90;;;24.10;71.90;;;;;;5071899;28;20441;-49
2022/08/07 12:06:02;;;;;;;6.20;1.23;;;24.10;71.50;;;;;;5070629;28;20109;-48
2022/08/07 12:08:43;;;;;;;4.97;0.77;;;24.20;71.60;;;;;;5085193;28;20089;-49
2022/08/07 12:11:13;;;;;;;1.10;0.90;;;24.30;71.30;;;;;;5073313;28;20039;-51
2022/08/07 12:13:47;;;;;;;3.58;1.40;;;24.40;71.00;;;;;;5074439;28;20461;-50
2022/08/07 12:16:20;;;;;;;1.25;0.90;;;24.40;70.90;;;;;;5052780;28;20139;-49
2022/08/07 12:19:11;;;;;;;2.90;1.27;;;24.50;71.50;;;;;;5085866;28;20036;-48
2022/08/07 12:21:58;;;;;;;1.75;0.93;;;24.60;71.50;;;;;;5091302;28;20048;-49
2022/08/07 12:24:30;;;;;;;0.77;0.65;;;24.70;71.30;;;;;;5068570;28;20036;-48
2022/08/07 12:27:17;;;;;;;1.73;1.27;;;24.80;71.20;;;;;;5072543;28;20052;-50
2022/08/07 12:30:12;;;;;;;4.57;1.10;;;24.80;69.00;;;;;;5077453;28;20040;-48
2022/08/07 12:32:43;;;;;;;1.77;0.90;;;24.80;69.50;;;;;;5064890;28;20127;-47
2022/08/07 12:35:12;;;;;;;0.82;0.82;;;24.70;69.90;;;;;;5084501;28;20075;-53
2022/08/07 12:37:39;;;;;;;1.55;0.93;;;24.60;69.20;;;;;;5090338;28;20036;-52
2022/08/07 12:40:27;;;;;;;1.10;0.60;;;24.70;70.60;;;;;;5090089;28;20051;-49
2022/08/07 12:42:57;;;;;;;1.63;0.80;;;24.70;68.80;;;;;;5085906;28;20032;-50
2022/08/07 12:45:26;;;;;;;2.15;0.52;;;24.80;69.20;;;;;;5074617;28;20039;-49
2022/08/07 12:48:10;;;;;;;3.47;0.65;;;24.90;68.20;;;;;;5082678;28;20111;-51
2022/08/07 12:50:47;;;;;;;1.58;0.80;;;25.00;66.90;;;;;;5081626;28;20066;-48
2022/08/07 12:53:17;;;;;;;1.33;0.60;;;25.10;67.30;;;;;;5075588;28;20055;-49
2022/08/07 12:56:00;;;;;;;1.13;0.65;;;25.00;67.60;;;;;;5070295;28;20064;-48
2022/08/07 12:58:29;;;;;;;1.73;0.90;;;25.10;66.10;;;;;;5078206;28;20044;-49
2022/08/07 13:01:16;;;;;;;1.13;0.57;;;24.90;66.30;;;;;;5090687;28;20040;-48
2022/08/07 13:03:55;;;;;;;1.42;0.80;;;24.60;65.90;;;;;;5079752;28;20513;-47
2022/08/07 13:06:36;;;;;;;3.80;0.70;;;24.40;65.60;;;;;;5070006;28;20047;-49
2022/08/07 13:09:36;;;;;;;1.27;0.70;;;24.30;66.40;;;;;;5082356;28;20057;-51
2022/08/07 13:12:26;;;;;;;0.82;0.60;;;24.40;66.90;;;;;;5027976;28;20059;-51
2022/08/07 13:15:06;;;;;;;1.80;0.65;;;24.40;67.80;;;;;;5079285;28;20087;-51
2022/08/07 13:18:06;;;;;;;6.63;0.90;;;24.50;66.20;;;;;;5073022;28;20414;-48